sensor_id;sensor_type;location;lat;lon;timestamp;pressure;altitude;pressure_sealevel;temperature;humidity
64711;BME280;51139;45.626;6.850;2023-12-20T00:02:11;82133.88;;;3.47;48.46
64711;BME280;51139;45.626;6.850;2023-12-20T00:04:37;82127.53;;;3.42;48.46
64711;BME280;51139;45.626;6.850;2023-12-20T00:07:02;82131.88;;;3.74;48.48
64711;BME280;51139;45.626;6.850;2023-12-20T00:09:28;82119.22;;;3.17;50.29
64711;BME280;51139;45.626;6.850;2023-12-20T00:11:53;82110.09;;;3.10;47.56
64711;BME280;51139;45.626;6.850;2023-12-20T00:14:19;82118.53;;;3.16;49.17
64711;BME280;51139;45.626;6.850;2023-12-20T00:16:44;82114.00;;;3.03;50.04
64711;BME280;51139;45.626;6.850;2023-12-20T00:19:09;82102.59;;;3.28;49.10
64711;BME280;51139;45.626;6.850;2023-12-20T00:21:35;82108.78;;;4.29;47.56
64711;BME280;51139;45.626;6.850;2023-12-20T00:24:00;82102.44;;;3.47;47.70
64711;BME280;51139;45.626;6.850;2023-12-20T00:26:26;82099.47;;;3.29;49.07
64711;BME280;51139;45.626;6.850;2023-12-20T00:28:53;82101.25;;;3.34;48.94
64711;BME280;51139;45.626;6.850;2023-12-20T00:31:18;82094.31;;;3.37;48.64
64711;BME280;51139;45.626;6.850;2023-12-20T00:33:44;82091.75;;;3.58;48.75
64711;BME280;51139;45.626;6.850;2023-12-20T00:36:11;82086.84;;;3.41;48.76
64711;BME280;51139;45.626;6.850;2023-12-20T00:38:36;82094.81;;;3.35;48.81
64711;BME280;51139;45.626;6.850;2023-12-20T00:41:02;82097.50;;;3.57;48.54
64711;BME280;51139;45.626;6.850;2023-12-20T00:43:27;82096.78;;;3.56;48.56
64711;BME280;51139;45.626;6.850;2023-12-20T00:45:53;82091.19;;;3.39;49.02
64711;BME280;51139;45.626;6.850;2023-12-20T00:48:18;82089.59;;;3.22;48.93
64711;BME280;51139;45.626;6.850;2023-12-20T00:50:44;82097.69;;;3.59;47.79
64711;BME280;51139;45.626;6.850;2023-12-20T00:53:09;82091.41;;;3.27;48.14
64711;BME280;51139;45.626;6.850;2023-12-20T00:55:35;82087.47;;;3.34;48.26
64711;BME280;51139;45.626;6.850;2023-12-20T00:58:00;82099.22;;;3.41;48.81
64711;BME280;51139;45.626;6.850;2023-12-20T01:00:25;82092.44;;;3.24;48.47
64711;BME280;51139;45.626;6.850;2023-12-20T01:02:51;82095.16;;;3.67;46.87
64711;BME280;51139;45.626;6.850;2023-12-20T01:05:18;82084.31;;;3.49;46.34
64711;BME280;51139;45.626;6.850;2023-12-20T01:07:43;82084.91;;;2.94;47.63
64711;BME280;51139;45.626;6.850;2023-12-20T01:10:09;82083.94;;;2.70;49.08
64711;BME280;51139;45.626;6.850;2023-12-20T01:12:36;82082.94;;;2.73;48.84
64711;BME280;51139;45.626;6.850;2023-12-20T01:15:01;82081.09;;;2.81;49.71
64711;BME280;51139;45.626;6.850;2023-12-20T01:17:27;82078.78;;;2.91;48.98
64711;BME280;51139;45.626;6.850;2023-12-20T01:19:52;82078.88;;;2.99;48.09
64711;BME280;51139;45.626;6.850;2023-12-20T01:22:18;82075.38;;;3.44;47.83
64711;BME280;51139;45.626;6.850;2023-12-20T01:24:44;82074.84;;;3.46;47.57
64711;BME280;51139;45.626;6.850;2023-12-20T01:27:09;82075.50;;;3.60;46.06
64711;BME280;51139;45.626;6.850;2023-12-20T01:29:35;82072.22;;;3.46;47.90
64711;BME280;51139;45.626;6.850;2023-12-20T01:32:00;82059.66;;;3.44;46.05
64711;BME280;51139;45.626;6.850;2023-12-20T01:34:26;82062.25;;;4.00;43.87
64711;BME280;51139;45.626;6.850;2023-12-20T01:36:51;82057.38;;;3.62;44.32
64711;BME280;51139;45.626;6.850;2023-12-20T01:39:17;82060.47;;;3.74;44.88
64711;BME280;51139;45.626;6.850;2023-12-20T01:41:43;82061.16;;;3.96;45.84
64711;BME280;51139;45.626;6.850;2023-12-20T01:44:08;82061.84;;;3.54;45.78
64711;BME280;51139;45.626;6.850;2023-12-20T01:46:34;82053.53;;;3.28;45.97
64711;BME280;51139;45.626;6.850;2023-12-20T01:49:00;82061.13;;;3.53;46.43
64711;BME280;51139;45.626;6.850;2023-12-20T01:51:26;82067.97;;;3.56;46.80
64711;BME280;51139;45.626;6.850;2023-12-20T01:53:54;82062.81;;;3.85;46.45
64711;BME280;51139;45.626;6.850;2023-12-20T01:56:20;82057.53;;;4.20;44.96
64711;BME280;51139;45.626;6.850;2023-12-20T01:58:46;82065.56;;;4.01;45.12
64711;BME280;51139;45.626;6.850;2023-12-20T02:01:12;82076.69;;;3.93;45.91
64711;BME280;51139;45.626;6.850;2023-12-20T02:03:41;82068.31;;;3.95;46.20
64711;BME280;51139;45.626;6.850;2023-12-20T02:06:07;82073.06;;;3.97;46.75
64711;BME280;51139;45.626;6.850;2023-12-20T02:08:33;82073.31;;;4.06;45.72
64711;BME280;51139;45.626;6.850;2023-12-20T02:10:59;82068.69;;;4.20;46.33
64711;BME280;51139;45.626;6.850;2023-12-20T02:13:25;82057.81;;;4.37;45.81
64711;BME280;51139;45.626;6.850;2023-12-20T02:15:52;82061.53;;;4.21;44.27
64711;BME280;51139;45.626;6.850;2023-12-20T02:18:17;82060.44;;;4.37;43.20
64711;BME280;51139;45.626;6.850;2023-12-20T02:20:43;82066.25;;;4.22;46.57
64711;BME280;51139;45.626;6.850;2023-12-20T02:23:08;82051.16;;;4.36;45.52
64711;BME280;51139;45.626;6.850;2023-12-20T02:25:34;82046.34;;;4.77;45.66
64711;BME280;51139;45.626;6.850;2023-12-20T02:27:59;82043.72;;;5.14;44.42
64711;BME280;51139;45.626;6.850;2023-12-20T02:30:25;82054.41;;;4.79;44.53
64711;BME280;51139;45.626;6.850;2023-12-20T02:32:51;82050.28;;;4.13;47.24
64711;BME280;51139;45.626;6.850;2023-12-20T02:35:17;82038.94;;;4.68;46.55
64711;BME280;51139;45.626;6.850;2023-12-20T02:37:43;82041.47;;;4.52;46.61
64711;BME280;51139;45.626;6.850;2023-12-20T02:40:08;82034.78;;;4.44;47.13
64711;BME280;51139;45.626;6.850;2023-12-20T02:42:34;82033.19;;;4.41;46.44
64711;BME280;51139;45.626;6.850;2023-12-20T02:44:59;82022.31;;;4.36;46.35
64711;BME280;51139;45.626;6.850;2023-12-20T02:47:24;82027.72;;;4.67;45.98
64711;BME280;51139;45.626;6.850;2023-12-20T02:49:50;82026.00;;;4.70;46.64
64711;BME280;51139;45.626;6.850;2023-12-20T02:52:15;82014.06;;;4.61;45.95
64711;BME280;51139;45.626;6.850;2023-12-20T02:54:41;82012.00;;;4.38;46.78
64711;BME280;51139;45.626;6.850;2023-12-20T02:57:06;82004.50;;;4.43;46.75
64711;BME280;51139;45.626;6.850;2023-12-20T02:59:32;82012.28;;;4.27;45.86
64711;BME280;51139;45.626;6.850;2023-12-20T03:01:57;82004.41;;;3.56;48.28
64711;BME280;51139;45.626;6.850;2023-12-20T03:04:22;82003.19;;;3.57;48.45
64711;BME280;51139;45.626;6.850;2023-12-20T03:06:48;81992.91;;;3.59;49.06
64711;BME280;51139;45.626;6.850;2023-12-20T03:09:13;81990.72;;;3.28;50.15
64711;BME280;51139;45.626;6.850;2023-12-20T03:11:39;81978.16;;;3.27;48.33
64711;BME280;51139;45.626;6.850;2023-12-20T03:14:04;81989.28;;;4.12;47.23
64711;BME280;51139;45.626;6.850;2023-12-20T03:16:30;81973.59;;;4.49;46.92
64711;BME280;51139;45.626;6.850;2023-12-20T03:18:56;81975.00;;;4.87;46.63
64711;BME280;51139;45.626;6.850;2023-12-20T03:21:22;81967.38;;;4.60;48.10
64711;BME280;51139;45.626;6.850;2023-12-20T03:23:47;81971.59;;;4.71;46.14
64711;BME280;51139;45.626;6.850;2023-12-20T03:26:13;81956.41;;;4.77;45.18
64711;BME280;51139;45.626;6.850;2023-12-20T03:28:39;81959.25;;;4.50;46.05
64711;BME280;51139;45.626;6.850;2023-12-20T03:31:04;81959.25;;;3.92;45.27
64711;BME280;51139;45.626;6.850;2023-12-20T03:33:30;81958.41;;;3.26;46.43
64711;BME280;51139;45.626;6.850;2023-12-20T03:35:55;81961.84;;;3.63;47.01
64711;BME280;51139;45.626;6.850;2023-12-20T03:38:21;81957.44;;;3.36;49.25
64711;BME280;51139;45.626;6.850;2023-12-20T03:40:49;81961.41;;;3.51;48.83
64711;BME280;51139;45.626;6.850;2023-12-20T03:43:14;81954.06;;;3.28;49.72
64711;BME280;51139;45.626;6.850;2023-12-20T03:45:40;81963.72;;;2.99;50.83
64711;BME280;51139;45.626;6.850;2023-12-20T03:48:07;81968.75;;;3.10;50.76
64711;BME280;51139;45.626;6.850;2023-12-20T03:50:32;81968.78;;;2.97;51.46
64711;BME280;51139;45.626;6.850;2023-12-20T03:52:57;81967.88;;;2.46;52.61
64711;BME280;51139;45.626;6.850;2023-12-20T03:55:23;81965.50;;;2.21;52.71
64711;BME280;51139;45.626;6.850;2023-12-20T03:57:48;81949.41;;;2.03;52.81
